Terminal Aerodrome Forecast
Issued by NWS

Home | Current Version | Previous Version | Text Only | Print | Product List | Glossary On
Versions: 1 2 3 4 5 6 7 8 9 10 11 12 13 14 15 16
603
FTUS41 KPBZ 101128
TAFMGW
TAF
KMGW 101128Z 1012/1112 25006KT P6SM BKN050
     FM102300 24005KT P6SM SCT100
     FM110800 17003KT 3SM -SN OVC035=

USA.gov is the U.S. government's official web portal to all federal, state and local government web resources and services.